createdAt,value
2016-07-29T05:22:49.030Z,0
2016-07-29T05:22:59.017Z,0
2016-07-29T05:23:09.030Z,0
2016-07-29T05:23:19.032Z,0
2016-07-29T05:23:29.046Z,0
2016-07-29T05:23:39.042Z,0
2016-07-29T05:23:49.042Z,0
2016-07-29T05:23:59.037Z,0
2016-07-29T05:24:09.075Z,0
2016-07-29T05:24:19.041Z,0
2016-07-29T05:24:29.039Z,0
2016-07-29T05:24:39.053Z,0
2016-07-29T05:24:49.084Z,0
2016-07-29T05:24:59.060Z,0
2016-07-29T05:25:09.048Z,0
2016-07-29T05:25:19.052Z,0
2016-07-29T05:25:29.046Z,0
2016-07-29T05:25:39.048Z,0
2016-07-29T05:25:49.059Z,0
2016-07-29T05:25:59.049Z,0
2016-07-29T05:26:09.062Z,0
2016-07-29T05:26:19.053Z,0
2016-07-29T05:26:29.055Z,15
2016-07-29T05:26:39.067Z,5
2016-07-29T05:26:49.069Z,5
2016-07-29T05:26:59.063Z,10
2016-07-29T05:27:09.079Z,10
2016-07-29T05:27:19.070Z,10
2016-07-29T05:27:29.088Z,10
2016-07-29T05:27:39.056Z,10
2016-07-29T05:27:49.080Z,10
2016-07-29T05:27:59.084Z,10
2016-07-29T05:28:09.088Z,10
2016-07-29T05:28:19.085Z,5
2016-07-29T05:28:29.099Z,5
2016-07-29T05:28:39.083Z,5
2016-07-29T05:28:49.088Z,5
2016-07-29T05:28:59.089Z,5
2016-07-29T05:29:09.085Z,5
2016-07-29T05:29:19.102Z,5
2016-07-29T05:29:29.096Z,5
2016-07-29T05:30:19.353Z,150
2016-07-29T05:30:29.347Z,150
2016-07-29T05:30:39.352Z,150
2016-07-29T05:46:40.602Z,1265
2016-07-29T05:55:06.812Z,300
2016-07-29T05:55:16.586Z,555
2016-07-29T05:55:26.590Z,455
2016-07-29T05:55:36.582Z,355
2016-07-29T05:55:46.592Z,780
2016-07-29T05:55:56.620Z,810
2016-07-29T05:56:06.593Z,735
2016-07-29T06:11:29.471Z,50
2016-07-29T06:11:39.468Z,50
2016-07-29T06:11:49.467Z,50
2016-07-29T06:11:59.471Z,45
2016-07-29T06:12:09.473Z,40
2016-07-29T06:12:19.482Z,30
2016-07-29T06:12:29.485Z,25
2016-07-29T06:12:39.480Z,50
2016-07-29T06:12:49.527Z,45
2016-07-29T06:12:59.489Z,50
2016-07-29T06:13:09.489Z,50
2016-07-29T06:13:19.494Z,50
2016-07-29T06:13:29.492Z,40
2016-07-29T06:13:39.491Z,50
2016-07-29T06:13:49.500Z,50
2016-07-29T06:13:59.556Z,50
2016-07-29T06:14:09.833Z,50
2016-07-29T06:14:19.798Z,50
2016-07-29T06:14:29.579Z,50
2016-07-29T06:14:39.717Z,50
2016-07-29T06:14:49.500Z,50
2016-07-29T06:14:59.521Z,50
2016-07-29T06:15:09.514Z,50
2016-07-29T06:15:19.509Z,50
2016-07-29T06:15:29.526Z,50
2016-07-29T06:15:39.513Z,50
2016-07-29T06:15:49.521Z,50
2016-07-29T06:15:59.516Z,50
2016-07-29T06:16:09.509Z,50
2016-07-29T06:16:19.519Z,50
2016-07-29T06:16:29.530Z,50
2016-07-29T06:16:39.529Z,50
2016-07-29T06:16:49.535Z,50
2016-07-29T06:16:59.527Z,50
2016-07-29T06:17:09.542Z,50
2016-07-29T06:17:19.538Z,50
2016-07-29T06:17:29.529Z,50
2016-07-29T06:17:39.539Z,50
2016-07-29T06:17:49.542Z,50
2016-07-29T06:17:59.569Z,50
2016-07-29T06:26:13.009Z,5
2016-07-29T06:26:22.992Z,5
2016-07-29T06:26:33.005Z,5
2016-07-29T06:26:43.013Z,5
2016-07-29T06:26:53.017Z,5
2016-07-29T06:27:03.000Z,5
2016-07-29T06:27:13.690Z,5
2016-07-29T06:27:23.058Z,5
2016-07-29T06:27:33.056Z,5
2016-07-29T06:27:43.050Z,5
2016-07-29T06:27:53.065Z,5
2016-07-29T06:28:03.056Z,5
2016-07-29T06:28:13.078Z,5
2016-07-29T06:28:24.019Z,5
2016-07-29T06:28:33.401Z,5
2016-07-29T06:28:43.384Z,5
2016-07-29T06:28:53.952Z,5
2016-07-29T06:29:03.398Z,0
2016-07-29T06:29:18.177Z,0
2016-07-29T06:29:27.560Z,0
2016-07-29T06:29:37.570Z,0
2016-07-29T06:29:47.552Z,0
2016-07-29T06:29:57.569Z,0
2016-07-29T06:30:12.630Z,0
2016-07-29T06:30:21.991Z,0
2016-07-29T06:30:32.007Z,0
2016-07-29T06:30:44.008Z,0
2016-07-29T06:30:53.356Z,0
2016-07-29T06:31:03.375Z,0
2016-07-29T06:31:14.727Z,0
2016-07-29T06:31:24.102Z,0
2016-07-29T06:31:35.712Z,0
2016-07-29T06:31:45.083Z,0
2016-07-29T06:31:55.082Z,0
2016-07-29T06:32:05.090Z,0
2016-07-29T06:32:15.088Z,0
2016-07-29T06:32:25.084Z,0
2016-07-29T06:32:35.084Z,0
2016-07-29T06:32:45.092Z,0
2016-07-29T06:32:55.110Z,5
2016-07-29T06:33:05.101Z,5
2016-07-29T06:33:15.103Z,5
2016-07-29T06:33:25.094Z,0
2016-07-29T06:33:35.093Z,0
2016-07-29T06:33:45.098Z,0
2016-07-29T06:33:55.100Z,0
2016-07-29T06:34:05.101Z,5
2016-07-29T06:34:15.114Z,0
2016-07-29T06:34:25.102Z,0
2016-07-29T06:34:35.113Z,0
2016-07-29T06:34:45.113Z,0
2016-07-29T06:34:55.115Z,0
2016-07-29T06:35:06.283Z,0
2016-07-29T06:35:17.618Z,5
2016-07-29T06:35:28.639Z,5
2016-07-29T06:35:38.000Z,0
2016-07-29T06:35:48.001Z,0
2016-07-29T06:35:58.021Z,0
2016-07-29T06:36:08.031Z,0
2016-07-29T06:36:18.864Z,5
2016-07-29T06:36:28.219Z,0
2016-07-29T06:36:38.221Z,5
2016-07-29T06:36:48.857Z,5
2016-07-29T06:36:58.226Z,5
2016-07-29T06:37:08.230Z,0
2016-07-29T06:37:18.235Z,0
2016-07-29T06:37:28.232Z,0
2016-07-29T06:37:38.255Z,0
2016-07-29T06:37:48.242Z,0
2016-07-29T06:37:58.241Z,5
2016-07-29T06:38:08.271Z,5
2016-07-29T06:38:19.521Z,5
2016-07-29T06:38:28.875Z,5
2016-07-29T06:38:38.886Z,5
2016-07-29T06:38:51.912Z,5
2016-07-29T06:39:02.743Z,5
2016-07-29T06:39:12.129Z,5
2016-07-29T06:39:22.136Z,5
2016-07-29T06:39:32.114Z,5
2016-07-29T06:39:43.534Z,5
2016-07-29T06:39:52.907Z,5
2016-07-29T06:40:02.929Z,5
2016-07-29T06:40:12.910Z,5
2016-07-29T06:40:22.905Z,5
2016-07-29T06:40:34.382Z,0
2016-07-29T06:40:43.738Z,0
2016-07-29T06:40:55.485Z,0
2016-07-29T06:41:04.871Z,0
2016-07-29T06:41:14.851Z,0
2016-07-29T06:41:26.834Z,0
2016-07-29T06:41:37.336Z,0
2016-07-29T06:41:46.710Z,0
2016-07-29T07:57:20.914Z,5
2016-07-29T07:57:30.807Z,5
2016-07-29T07:57:40.808Z,5
2016-07-29T07:57:50.826Z,5
2016-07-29T07:58:00.819Z,5
2016-07-29T07:58:10.827Z,5
2016-07-29T07:58:20.828Z,5
2016-07-29T07:58:30.815Z,5
2016-07-29T07:58:40.823Z,5
2016-07-29T07:58:50.838Z,5
2016-07-29T07:59:00.828Z,5
2016-07-29T07:59:10.850Z,5
2016-07-29T07:59:20.846Z,5
2016-07-29T07:59:30.841Z,5
2016-07-29T07:59:40.850Z,5
2016-07-29T07:59:50.840Z,5
2016-07-29T08:00:00.847Z,5
2016-07-29T08:00:10.843Z,5
2016-07-29T08:00:20.850Z,5
2016-07-29T08:00:30.851Z,5
2016-07-29T08:00:40.857Z,5
2016-07-29T08:00:50.859Z,5
2016-07-29T08:01:00.864Z,5
2016-07-29T08:01:10.863Z,5
2016-07-29T08:01:20.851Z,5
2016-07-29T08:01:30.856Z,5
2016-07-29T08:01:40.876Z,5
2016-07-29T08:01:50.866Z,5
2016-07-29T08:02:00.885Z,5
2016-07-29T08:02:10.874Z,5
2016-07-29T08:02:20.876Z,5
2016-07-29T08:02:30.879Z,5
2016-07-29T08:02:40.874Z,5
2016-07-29T08:02:50.878Z,5
2016-07-29T08:03:00.892Z,5
2016-07-29T08:03:10.893Z,5
2016-07-29T08:03:20.906Z,5
2016-07-29T08:03:30.910Z,5
2016-07-29T08:03:40.898Z,5
2016-07-29T08:03:50.908Z,5
2016-07-29T08:04:00.987Z,5
2016-07-29T08:04:10.947Z,5
2016-07-29T08:04:20.886Z,5
2016-07-29T08:04:30.912Z,5
2016-07-29T08:04:40.935Z,5
2016-07-29T08:04:50.907Z,5
2016-07-29T08:05:00.909Z,5
2016-07-29T08:05:10.931Z,5
2016-07-29T08:05:20.899Z,5
2016-07-29T08:05:30.919Z,5
2016-07-29T08:05:40.932Z,5
2016-07-29T08:05:50.918Z,5
2016-07-29T08:06:00.930Z,5
2016-07-29T08:06:10.922Z,5
2016-07-29T08:06:20.925Z,5
2016-07-29T08:06:30.924Z,5
2016-07-29T08:06:40.931Z,5
2016-07-29T08:06:50.972Z,5
2016-07-29T08:07:00.923Z,5
2016-07-29T08:07:10.941Z,5
2016-07-29T08:07:20.957Z,5
2016-07-29T08:07:30.939Z,5
2016-07-29T08:07:40.937Z,5
2016-07-29T08:07:50.938Z,5
2016-07-29T08:08:00.968Z,5
2016-07-29T08:08:11.049Z,5
2016-07-29T08:08:20.939Z,5
2016-07-29T08:08:31.027Z,5
2016-07-29T08:08:40.960Z,5
2016-07-29T08:08:50.994Z,5
2016-07-29T08:09:00.963Z,5
2016-07-29T08:09:10.964Z,5
2016-07-29T08:09:20.979Z,5
2016-07-29T08:09:30.990Z,5
2016-07-29T08:09:40.959Z,5
2016-07-29T08:09:50.966Z,5
2016-07-29T08:10:00.958Z,5
2016-07-29T08:10:10.974Z,5
2016-07-29T08:10:20.977Z,5
2016-07-29T08:10:31.003Z,5
2016-07-29T08:10:40.995Z,5
2016-07-29T08:10:50.997Z,5
2016-07-29T08:11:00.998Z,5
2016-07-29T08:11:10.970Z,5
2016-07-29T08:11:20.997Z,5
2016-07-29T08:11:30.985Z,5
2016-07-29T08:11:40.996Z,5
2016-07-29T08:11:50.993Z,5
2016-07-29T08:12:01.003Z,5
2016-07-29T08:12:11.009Z,5
2016-07-29T08:12:21.020Z,5
2016-07-29T08:12:31.006Z,5
2016-07-29T08:12:41.016Z,5
2016-07-29T08:12:51.008Z,5
2016-07-29T08:13:01.015Z,5
2016-07-29T08:13:11.013Z,5
2016-07-29T08:13:21.013Z,5
2016-07-29T08:13:31.018Z,5
2016-07-29T08:13:41.030Z,5
2016-07-29T08:13:51.029Z,5
2016-07-29T08:14:01.021Z,5
2016-07-29T08:14:11.031Z,5
2016-07-29T08:14:21.031Z,5
2016-07-29T08:14:31.032Z,5
2016-07-29T08:14:41.028Z,5
2016-07-29T08:14:51.047Z,5
2016-07-29T08:15:01.047Z,5
2016-07-29T08:15:11.048Z,5
2016-07-29T08:15:21.037Z,5
2016-07-29T08:15:31.050Z,5
2016-07-29T08:15:41.060Z,5
2016-07-29T08:15:51.057Z,5
2016-07-29T08:16:01.051Z,5
2016-07-29T08:16:11.058Z,5
2016-07-29T08:16:21.058Z,5
2016-07-29T08:16:31.057Z,5
2016-07-29T08:16:41.063Z,5
2016-07-29T08:16:51.061Z,5
2016-07-29T08:17:01.070Z,5
2016-07-29T08:17:11.064Z,5
2016-07-29T08:17:21.081Z,5
2016-07-29T08:17:31.086Z,5
2016-07-29T08:17:41.087Z,5
2016-07-29T08:17:51.079Z,5
2016-07-29T08:18:01.101Z,5
2016-07-29T08:18:11.070Z,5
2016-07-29T08:18:21.098Z,5
2016-07-29T08:18:31.083Z,5
2016-07-29T08:18:41.096Z,5
2016-07-29T08:18:51.096Z,5
2016-07-29T08:19:01.102Z,5
2016-07-29T08:19:11.097Z,5
2016-07-29T08:19:21.099Z,5
2016-07-29T08:19:31.093Z,5
2016-07-29T08:19:41.104Z,5
2016-07-29T08:19:51.109Z,5
2016-07-29T08:20:01.109Z,5
2016-07-29T08:20:11.115Z,5
2016-07-29T08:20:21.135Z,5
2016-07-29T08:20:31.127Z,5
2016-07-29T08:20:41.119Z,5
2016-07-29T08:20:51.123Z,5
2016-07-29T08:21:01.099Z,5
2016-07-29T08:21:11.117Z,5
2016-07-29T08:21:21.121Z,5
2016-07-29T08:21:31.137Z,5
2016-07-29T08:21:41.125Z,5
2016-07-29T08:21:51.136Z,5
2016-07-29T08:22:01.131Z,5
2016-07-29T08:22:11.142Z,5
2016-07-29T08:22:21.124Z,5
2016-07-29T08:22:31.137Z,5
2016-07-29T08:22:41.150Z,5
2016-07-29T08:22:51.153Z,5
2016-07-29T08:23:01.135Z,5
2016-07-29T08:23:11.181Z,5
2016-07-29T08:23:21.148Z,5
2016-07-29T08:23:31.152Z,5
2016-07-29T08:23:41.147Z,5
2016-07-29T08:23:51.149Z,5
2016-07-29T08:24:01.134Z,0
2016-07-29T08:24:11.197Z,0
2016-07-29T08:24:21.164Z,0
2016-07-29T08:24:31.367Z,0
2016-07-29T08:24:41.164Z,0
2016-07-29T08:24:51.172Z,0
2016-07-29T08:25:01.162Z,0
2016-07-29T08:25:11.177Z,0
2016-07-29T08:25:21.178Z,0
2016-07-29T08:25:31.189Z,0
2016-07-29T08:25:41.171Z,0
2016-07-29T08:25:51.189Z,0
2016-07-29T08:26:01.193Z,0
2016-07-29T08:26:11.183Z,0
2016-07-29T08:26:21.193Z,0
2016-07-29T08:26:31.184Z,5
2016-07-29T08:26:41.189Z,5
2016-07-29T08:26:51.201Z,5
2016-07-29T08:27:01.199Z,5
2016-07-29T08:27:11.208Z,5
2016-07-29T08:27:21.198Z,5
2016-07-29T08:27:31.201Z,5
2016-07-29T08:27:41.208Z,5
2016-07-29T08:27:51.226Z,5
2016-07-29T08:28:01.225Z,5
2016-07-29T08:28:11.217Z,5
2016-07-29T08:28:21.210Z,5
2016-07-29T08:28:31.220Z,5
2016-07-29T08:28:41.226Z,5
2016-07-29T08:28:51.230Z,5
2016-07-29T08:29:01.221Z,5
2016-07-29T08:29:11.239Z,5
2016-07-29T08:29:21.229Z,5
2016-07-29T08:29:31.235Z,5
2016-07-29T08:29:41.233Z,5
2016-07-29T08:29:51.238Z,5
2016-07-29T08:30:01.244Z,5
2016-07-29T08:30:11.233Z,5
2016-07-29T08:30:21.237Z,5
2016-07-29T08:30:31.258Z,5
2016-07-29T08:30:41.266Z,5
2016-07-29T08:30:51.284Z,5
2016-07-29T08:31:01.240Z,5
2016-07-29T08:31:11.253Z,5
2016-07-29T08:31:21.255Z,5
2016-07-29T08:31:31.278Z,5
2016-07-29T08:31:41.271Z,5
2016-07-29T08:31:51.274Z,5
2016-07-29T08:32:01.269Z,5
2016-07-29T08:32:11.264Z,5
2016-07-29T08:32:21.280Z,5
2016-07-29T08:32:31.277Z,5
2016-07-29T08:32:41.274Z,5
2016-07-29T08:32:51.298Z,5
2016-07-29T08:33:01.286Z,5
2016-07-29T08:33:11.286Z,5
2016-07-29T08:33:21.288Z,5
2016-07-29T08:33:31.288Z,5
2016-07-29T08:33:41.282Z,5
2016-07-29T08:33:51.294Z,5
2016-07-29T08:34:01.290Z,5
2016-07-29T08:34:11.300Z,5
2016-07-29T08:34:21.308Z,5
2016-07-29T08:34:31.307Z,5
2016-07-29T08:34:41.284Z,5
2016-07-29T08:34:51.316Z,5
2016-07-29T08:35:01.350Z,5
2016-07-29T08:35:11.303Z,5
2016-07-29T08:35:21.325Z,5
2016-07-29T08:35:31.318Z,0
2016-07-29T08:35:42.029Z,0
2016-07-29T08:35:51.923Z,0
2016-07-29T08:36:01.397Z,0
2016-07-29T08:36:11.560Z,0
2016-07-29T08:36:22.752Z,5
2016-07-29T08:36:32.384Z,5
2016-07-29T08:36:42.378Z,5
2016-07-29T08:36:52.225Z,5
2016-07-29T08:37:02.135Z,5
2016-07-29T08:37:12.145Z,5
2016-07-29T08:37:22.257Z,5
2016-07-29T08:37:32.477Z,5
2016-07-29T08:37:42.222Z,5
2016-07-29T08:37:52.298Z,5
2016-07-29T08:38:02.226Z,5
2016-07-29T08:38:12.153Z,5
2016-07-29T08:38:22.120Z,5
2016-07-29T08:38:32.159Z,5
2016-07-29T08:38:42.144Z,5
2016-07-29T08:38:52.153Z,5
2016-07-29T08:39:02.144Z,5
2016-07-29T08:39:12.144Z,5
2016-07-29T08:39:22.163Z,5
2016-07-29T08:39:32.147Z,5
2016-07-29T08:39:42.163Z,5
2016-07-29T08:39:52.157Z,5
2016-07-29T08:40:02.165Z,5
2016-07-29T08:40:12.172Z,5
2016-07-29T08:40:22.163Z,5
2016-07-29T08:40:32.169Z,5
2016-07-29T08:40:42.193Z,5
2016-07-29T08:40:52.172Z,5
2016-07-29T08:41:02.179Z,5
2016-07-29T08:41:12.622Z,5
2016-07-29T08:41:22.342Z,5
2016-07-29T08:41:32.402Z,5
2016-07-29T08:41:42.711Z,5
2016-07-29T08:41:52.594Z,5
2016-07-29T08:42:02.372Z,5
2016-07-29T08:42:12.732Z,5
2016-07-29T08:42:22.295Z,5
2016-07-29T08:42:32.248Z,5
2016-07-29T08:42:42.489Z,5
2016-07-29T10:01:43.435Z,0
2016-07-29T10:01:53.384Z,0
2016-07-29T10:02:03.390Z,0
2016-07-29T10:02:13.412Z,5
2016-07-29T10:02:24.808Z,5
2016-07-29T10:02:34.168Z,5
2016-07-29T10:02:44.167Z,5
2016-07-29T10:02:55.586Z,5
2016-07-29T10:03:04.948Z,5
2016-07-29T10:03:16.370Z,5
2016-07-29T10:03:25.724Z,5
2016-07-29T10:03:35.784Z,5
2016-07-29T10:03:45.736Z,5
2016-07-29T10:03:57.562Z,5
2016-07-29T10:04:07.763Z,0
2016-07-29T10:04:17.129Z,0
2016-07-29T10:04:27.134Z,5
2016-07-29T10:04:37.133Z,5
2016-07-29T10:04:47.132Z,5
2016-07-29T10:04:57.153Z,5
2016-07-29T10:05:07.145Z,5
2016-07-29T10:05:17.147Z,5
2016-07-29T10:05:27.129Z,5
2016-07-29T10:05:37.143Z,5
2016-07-29T10:05:48.598Z,5
2016-07-29T10:05:59.157Z,5
2016-07-29T10:06:08.555Z,5
2016-07-29T10:06:18.533Z,0
2016-07-29T10:06:28.527Z,0
2016-07-29T10:06:38.553Z,0
2016-07-29T10:06:52.053Z,5
2016-07-29T10:07:03.126Z,5
2016-07-29T10:07:13.068Z,5
2016-07-29T10:07:22.481Z,5
2016-07-29T10:07:32.495Z,5
2016-07-29T10:07:47.145Z,5
2016-07-29T10:07:56.511Z,0
2016-07-29T10:08:06.527Z,0
2016-07-29T10:08:16.523Z,0
2016-07-29T10:08:26.528Z,0
2016-07-29T10:08:36.546Z,0
2016-07-29T10:08:50.537Z,0
2016-07-29T10:08:59.899Z,0
2016-07-29T10:09:09.905Z,0
2016-07-29T10:09:19.906Z,0
2016-07-29T10:09:29.903Z,0
2016-07-29T10:09:39.929Z,0
2016-07-29T10:09:49.932Z,0
2016-07-29T10:09:59.922Z,0
2016-07-29T10:10:09.926Z,0
2016-07-29T10:10:19.912Z,0
2016-07-29T10:10:29.939Z,0
2016-07-29T10:10:40.557Z,0
2016-07-29T10:10:51.788Z,0
2016-07-29T10:11:01.144Z,0
2016-07-29T10:11:12.458Z,0
2016-07-29T10:11:24.510Z,0
2016-07-29T10:11:36.030Z,0
2016-07-29T10:11:45.406Z,0
2016-07-29T10:11:55.420Z,0
2016-07-29T10:12:05.421Z,0
2016-07-29T10:12:15.421Z,0
2016-07-29T10:12:25.428Z,0
2016-07-29T10:12:35.425Z,0
2016-07-29T10:12:45.426Z,0
2016-07-29T10:12:56.101Z,0
2016-07-29T10:13:08.697Z,0
2016-07-29T10:13:18.063Z,0
2016-07-29T10:13:29.243Z,5
2016-07-29T10:13:38.612Z,5
2016-07-29T10:13:48.618Z,5
2016-07-29T10:13:58.611Z,5
2016-07-29T10:14:08.644Z,5
2016-07-29T10:14:21.088Z,5
2016-07-29T10:14:32.329Z,5
2016-07-29T10:14:41.695Z,5
2016-07-29T10:14:51.699Z,5
2016-07-29T10:15:04.724Z,5
2016-07-29T10:15:14.089Z,5
2016-07-29T10:15:24.068Z,5
2016-07-29T10:15:34.084Z,5
2016-07-29T10:15:44.101Z,5
2016-07-29T10:15:54.092Z,5
2016-07-29T10:16:04.094Z,0
2016-07-29T10:16:16.266Z,0
2016-07-29T10:16:27.260Z,5
2016-07-29T10:16:36.634Z,5
2016-07-29T10:16:46.638Z,5
2016-07-29T10:16:56.644Z,5
2016-07-29T10:17:09.884Z,5
2016-07-29T10:17:19.242Z,5
2016-07-29T10:17:30.118Z,5
2016-07-29T10:17:39.490Z,5
2016-07-29T10:17:49.492Z,5
2016-07-29T10:17:59.501Z,5
2016-07-29T10:18:09.500Z,5
2016-07-29T10:18:24.833Z,5
2016-07-29T10:18:34.189Z,5
2016-07-29T10:18:44.175Z,5
2016-07-29T10:18:54.201Z,5
2016-07-29T10:19:06.571Z,5
2016-07-29T10:19:15.951Z,5
2016-07-29T10:19:25.949Z,5
2016-07-29T10:19:35.947Z,5
2016-07-29T10:19:45.950Z,5
2016-07-29T10:19:56.830Z,5
2016-07-29T10:20:06.204Z,5
2016-07-29T10:20:16.181Z,5
2016-07-29T10:20:29.741Z,5
2016-07-29T10:20:40.318Z,5
2016-07-29T10:20:49.694Z,5
2016-07-29T10:20:59.707Z,5
2016-07-29T10:21:14.898Z,5
2016-07-29T10:21:25.085Z,5
2016-07-29T10:21:36.690Z,5
2016-07-29T10:21:46.058Z,5
2016-07-29T10:21:56.072Z,5
2016-07-29T10:22:06.096Z,5
2016-07-29T10:22:16.087Z,5
2016-07-29T10:22:26.080Z,5
2016-07-29T10:22:39.427Z,5
2016-07-29T10:22:52.764Z,5
2016-07-29T10:23:03.600Z,0
2016-07-29T10:23:13.852Z,0
2016-07-29T10:23:23.228Z,0
2016-07-29T10:23:33.234Z,5
2016-07-29T10:23:43.258Z,0
2016-07-29T10:23:53.220Z,0
2016-07-29T10:24:04.647Z,0
2016-07-29T10:24:14.018Z,0
2016-07-29T10:24:24.001Z,0
2016-07-29T10:24:34.640Z,0
2016-07-29T10:24:46.937Z,0
2016-07-29T10:24:56.308Z,0
2016-07-29T10:25:06.324Z,5
2016-07-29T10:25:16.306Z,0
2016-07-29T10:25:28.487Z,0
2016-07-29T10:25:37.844Z,0
2016-07-29T10:25:47.842Z,0
2016-07-29T10:25:58.499Z,0
2016-07-29T10:26:07.845Z,0
2016-07-29T10:26:18.580Z,0
2016-07-29T10:26:27.936Z,0
2016-07-29T10:26:37.932Z,0
2016-07-29T10:26:47.960Z,0
2016-07-29T10:26:57.981Z,5
2016-07-29T10:27:07.952Z,5
2016-07-29T10:27:18.492Z,5
2016-07-29T10:27:27.958Z,5
2016-07-29T10:27:37.967Z,5
2016-07-29T10:27:47.953Z,5
2016-07-29T10:27:58.766Z,5
2016-07-29T10:28:09.625Z,5
2016-07-29T10:28:18.982Z,0
2016-07-29T10:28:29.652Z,5
2016-07-29T10:28:39.020Z,5
2016-07-29T10:28:49.028Z,0
2016-07-29T10:28:59.026Z,0
2016-07-29T10:29:09.023Z,0
2016-07-29T10:29:19.032Z,0
2016-07-29T10:29:29.019Z,0
2016-07-29T10:29:39.030Z,0
2016-07-29T10:29:49.032Z,0
2016-07-29T10:29:59.031Z,0
2016-07-29T10:30:09.845Z,0
2016-07-29T10:30:19.883Z,0
2016-07-29T10:30:29.275Z,0
2016-07-29T10:30:39.241Z,0
2016-07-29T10:30:50.618Z,0
2016-07-29T10:30:59.988Z,0
2016-07-29T10:31:09.997Z,0
2016-07-29T10:31:24.251Z,5
2016-07-29T10:31:34.522Z,5
2016-07-29T10:31:43.912Z,0
2016-07-29T10:31:55.140Z,0
2016-07-29T10:32:04.508Z,0
2016-07-29T10:32:15.858Z,0
2016-07-29T10:32:25.213Z,0
2016-07-29T10:32:35.895Z,0
2016-07-29T10:32:45.255Z,5
2016-07-29T10:32:56.134Z,5
2016-07-29T10:33:07.191Z,0
2016-07-29T10:33:16.560Z,0
2016-07-29T10:33:26.560Z,0
2016-07-29T10:33:36.574Z,0
2016-07-29T10:33:46.566Z,0
2016-07-29T10:33:56.572Z,5
2016-07-29T10:34:07.985Z,5
2016-07-29T10:34:17.351Z,0
2016-07-29T10:34:30.305Z,0
2016-07-29T10:34:40.589Z,0
2016-07-29T10:34:49.947Z,0
2016-07-29T10:35:00.525Z,0
2016-07-29T10:35:09.967Z,0
2016-07-29T10:35:19.950Z,0
2016-07-29T10:35:29.962Z,5
2016-07-29T10:35:42.086Z,0
2016-07-29T10:35:53.169Z,0
2016-07-29T10:36:04.580Z,0
2016-07-29T10:36:13.952Z,0
2016-07-29T10:36:23.943Z,0
2016-07-29T10:36:33.959Z,0
2016-07-29T10:36:43.954Z,5
2016-07-29T10:36:53.959Z,0
2016-07-29T10:37:04.847Z,0
2016-07-29T10:37:14.205Z,0
2016-07-29T10:37:24.208Z,0
2016-07-29T10:37:34.209Z,0
2016-07-29T10:37:44.217Z,0
2016-07-29T10:37:54.213Z,0
2016-07-29T10:38:04.848Z,0
2016-07-29T10:38:14.211Z,0
2016-07-29T10:38:24.222Z,0
2016-07-29T10:38:34.230Z,0
2016-07-29T10:38:44.222Z,0
2016-07-29T10:38:54.248Z,0
2016-07-29T10:39:04.239Z,0
2016-07-29T10:39:15.710Z,0
2016-07-29T10:39:25.083Z,0
2016-07-29T10:39:35.063Z,0
2016-07-29T10:39:46.185Z,0
2016-07-29T10:39:55.534Z,0
2016-07-29T10:40:05.533Z,0
2016-07-29T10:40:15.543Z,0
2016-07-29T10:40:25.549Z,0
2016-07-29T10:40:35.544Z,0
2016-07-29T10:40:48.575Z,0
2016-07-29T10:40:57.956Z,0
2016-07-29T10:41:07.945Z,0
2016-07-29T10:41:17.954Z,0
2016-07-29T10:41:27.945Z,0
2016-07-29T10:41:37.944Z,0
2016-07-29T10:59:04.500Z,5
2016-07-29T10:59:14.479Z,5
2016-07-29T10:59:24.482Z,5
2016-07-29T10:59:34.473Z,5
2016-07-29T10:59:44.472Z,5
2016-07-29T10:59:54.470Z,5
2016-07-29T11:00:04.489Z,5
2016-07-29T11:00:14.485Z,5
2016-07-29T11:00:24.482Z,5
2016-07-29T11:00:34.492Z,5
2016-07-29T11:00:44.493Z,5
2016-07-29T11:00:54.508Z,5
2016-07-29T11:01:04.503Z,5
2016-07-29T11:01:14.487Z,5
2016-07-29T11:01:24.498Z,5
2016-07-29T11:01:34.508Z,5
2016-07-29T11:01:44.500Z,5
2016-07-29T11:01:54.536Z,5
2016-07-29T11:02:04.502Z,5
2016-07-29T11:02:14.520Z,5
2016-07-29T11:02:24.523Z,5
2016-07-29T11:02:34.522Z,5
2016-07-29T11:02:44.548Z,5
2016-07-29T11:02:54.525Z,5
2016-07-29T11:03:04.519Z,5
2016-07-29T11:03:14.520Z,5
2016-07-29T11:03:24.520Z,5
2016-07-29T11:03:34.527Z,5
2016-07-29T11:03:44.539Z,5
2016-07-29T11:03:54.524Z,5
2016-07-29T11:04:04.533Z,5
2016-07-29T11:04:14.627Z,5
2016-07-29T11:04:24.536Z,5
2016-07-29T11:04:34.546Z,5
2016-07-29T11:04:44.543Z,5
2016-07-29T11:04:54.558Z,5
2016-07-29T11:05:04.547Z,5
2016-07-29T11:05:14.563Z,5
2016-07-29T11:05:24.541Z,5
2016-07-29T11:05:34.552Z,5
